createdAt,value
2019-05-18T00:00:55.467Z,18.90
2019-05-18T00:03:24.252Z,18.90
2019-05-18T00:05:53.009Z,18.90
2019-05-18T00:08:21.826Z,18.90
2019-05-18T00:10:50.614Z,18.90
2019-05-18T00:13:19.362Z,18.90
2019-05-18T00:15:48.123Z,18.90
2019-05-18T00:18:16.870Z,18.90
2019-05-18T00:20:45.621Z,18.90
2019-05-18T00:23:14.414Z,18.80
2019-05-18T00:25:44.177Z,18.80
2019-05-18T00:28:12.916Z,18.80
2019-05-18T00:30:41.655Z,18.80
2019-05-18T00:33:10.399Z,18.80
2019-05-18T00:35:39.174Z,18.80
2019-05-18T00:38:07.974Z,18.80
2019-05-18T00:40:36.747Z,18.80
2019-05-18T00:43:05.561Z,18.90
2019-05-18T00:45:34.332Z,18.90
2019-05-18T00:48:03.082Z,18.90
2019-05-18T00:50:31.822Z,19.00
2019-05-18T00:53:00.680Z,19.00
2019-05-18T00:55:29.928Z,19.00
2019-05-18T00:57:58.659Z,19.10
2019-05-18T01:00:27.397Z,19.10
2019-05-18T01:02:56.183Z,19.10
2019-05-18T01:05:24.917Z,19.00
2019-05-18T01:07:53.679Z,19.00
2019-05-18T01:10:22.586Z,19.00
2019-05-18T01:12:51.349Z,19.00
2019-05-18T01:15:20.081Z,19.00
2019-05-18T01:17:56.830Z,19.00
2019-05-18T01:20:19.487Z,19.00
2019-05-18T01:22:48.325Z,19.00
2019-05-18T01:25:17.202Z,19.00
2019-05-18T01:27:46.903Z,18.90
2019-05-18T01:30:15.770Z,19.00
2019-05-18T01:32:44.586Z,19.00
2019-05-18T01:35:13.349Z,19.00
2019-05-18T01:37:42.096Z,19.00
2019-05-18T01:40:11.877Z,19.00
2019-05-18T01:42:40.638Z,19.00
2019-05-18T01:45:16.868Z,19.00
2019-05-18T01:47:40.182Z,19.00
2019-05-18T01:50:09.243Z,18.90
2019-05-18T01:52:38.169Z,18.90
2019-05-18T01:55:07.679Z,18.80
2019-05-18T01:57:36.494Z,18.80
2019-05-18T02:00:08.823Z,18.80
2019-05-18T02:02:37.562Z,18.80
2019-05-18T02:05:06.910Z,18.80
2019-05-18T02:07:35.664Z,18.80
2019-05-18T02:10:05.727Z,18.80
2019-05-18T02:12:34.544Z,18.80
2019-05-18T02:15:03.870Z,18.80
2019-05-18T02:17:32.671Z,18.80
2019-05-18T02:20:01.423Z,18.80
2019-05-18T02:22:30.201Z,18.80
2019-05-18T02:24:58.954Z,18.80
2019-05-18T02:27:27.683Z,18.80
2019-05-18T02:29:58.046Z,18.80
2019-05-18T02:32:26.867Z,18.80
2019-05-18T02:34:55.688Z,18.80
2019-05-18T02:37:24.434Z,18.80
2019-05-18T02:39:54.865Z,18.80
2019-05-18T02:42:23.660Z,18.70
2019-05-18T02:44:52.471Z,18.70
2019-05-18T02:47:21.287Z,18.70
2019-05-18T02:49:50.043Z,18.70
2019-05-18T02:52:18.858Z,18.70
2019-05-18T02:54:47.716Z,18.70
2019-05-18T02:57:16.472Z,18.70
2019-05-18T02:59:45.222Z,18.70
2019-05-18T03:02:13.959Z,18.70
2019-05-18T03:04:42.761Z,18.70
2019-05-18T03:07:11.626Z,18.70
2019-05-18T03:09:40.339Z,18.70
2019-05-18T03:12:09.192Z,18.70
2019-05-18T03:14:37.950Z,18.70
2019-05-18T03:17:06.704Z,18.70
2019-05-18T03:19:35.460Z,18.70
2019-05-18T03:22:04.352Z,18.60
2019-05-18T03:24:33.082Z,18.60
2019-05-18T03:27:01.921Z,18.60
2019-05-18T03:29:30.633Z,18.60
2019-05-18T03:32:00.945Z,18.60
2019-05-18T03:34:30.177Z,18.60
2019-05-18T03:36:58.912Z,18.60
2019-05-18T03:39:27.674Z,18.60
2019-05-18T03:41:56.418Z,18.60
2019-05-18T03:44:25.169Z,18.60
2019-05-18T03:46:53.903Z,18.60
2019-05-18T03:49:27.087Z,18.60
2019-05-18T03:51:53.118Z,18.60
2019-05-18T03:54:21.864Z,18.60
2019-05-18T03:56:51.487Z,18.60
2019-05-18T03:59:20.251Z,18.60
2019-05-18T04:01:49.001Z,18.60
2019-05-18T04:04:18.597Z,18.60
2019-05-18T04:06:47.447Z,18.60
2019-05-18T04:09:16.197Z,18.60
2019-05-18T04:11:45.058Z,18.50
2019-05-18T04:14:13.776Z,18.50
2019-05-18T04:16:42.536Z,18.60
2019-05-18T04:19:11.282Z,18.60
2019-05-18T04:21:40.038Z,18.60
2019-05-18T04:24:08.833Z,18.60
2019-05-18T04:26:37.963Z,18.60
2019-05-18T04:29:06.782Z,18.60
2019-05-18T04:31:35.488Z,18.70
2019-05-18T04:34:05.075Z,18.70
2019-05-18T04:36:33.846Z,18.80
2019-05-18T04:39:02.653Z,18.80
2019-05-18T04:41:31.410Z,18.80
2019-05-18T04:44:00.159Z,18.90
2019-05-18T04:46:29.034Z,18.90
2019-05-18T04:48:57.818Z,19.00
2019-05-18T04:51:26.575Z,19.10
2019-05-18T04:53:55.367Z,19.10
2019-05-18T04:56:24.163Z,19.20
2019-05-18T04:58:52.897Z,19.20
2019-05-18T05:01:21.788Z,19.20
2019-05-18T05:03:50.480Z,19.20
2019-05-18T05:06:19.217Z,19.20
2019-05-18T05:08:47.998Z,19.20
2019-05-18T05:11:16.748Z,19.20
2019-05-18T05:13:45.558Z,19.30
2019-05-18T05:16:14.343Z,19.30
2019-05-18T05:18:43.147Z,19.30
2019-05-18T05:21:11.896Z,19.40
2019-05-18T05:23:40.734Z,19.40
2019-05-18T05:26:09.570Z,19.40
2019-05-18T05:28:38.404Z,19.40
2019-05-18T05:31:07.174Z,19.50
2019-05-18T05:33:35.910Z,19.50
2019-05-18T05:36:05.678Z,19.60
2019-05-18T05:38:34.431Z,19.60
2019-05-18T05:41:03.267Z,19.60
2019-05-18T05:43:32.016Z,19.60
2019-05-18T05:46:00.752Z,19.60
2019-05-18T05:48:29.601Z,19.60
2019-05-18T05:50:58.369Z,19.60
2019-05-18T05:53:27.154Z,19.60
2019-05-18T05:55:55.939Z,19.60
2019-05-18T05:58:24.661Z,19.60
2019-05-18T06:00:53.381Z,19.70
2019-05-18T06:03:22.457Z,19.70
2019-05-18T06:05:51.204Z,19.80
2019-05-18T06:08:19.937Z,19.80
2019-05-18T06:10:48.807Z,19.80
2019-05-18T06:13:17.541Z,19.80
2019-05-18T06:15:46.291Z,19.80
2019-05-18T06:18:15.066Z,19.90
2019-05-18T06:20:51.542Z,19.90
2019-05-18T06:23:14.204Z,19.90
2019-05-18T06:25:43.095Z,19.90
2019-05-18T06:28:11.919Z,20.00
2019-05-18T06:30:40.649Z,20.00
2019-05-18T06:33:09.416Z,20.00
2019-05-18T06:35:38.190Z,20.10
2019-05-18T06:38:07.931Z,20.20
2019-05-18T06:40:36.678Z,20.30
2019-05-18T06:43:05.501Z,20.40
2019-05-18T06:45:34.232Z,20.50
2019-05-18T06:48:03.328Z,20.60
2019-05-18T06:50:32.528Z,20.60
2019-05-18T06:53:01.302Z,20.70
2019-05-18T06:55:30.050Z,20.80
2019-05-18T06:58:00.216Z,20.90
2019-05-18T07:00:29.043Z,21.00
2019-05-18T07:02:57.849Z,21.00
2019-05-18T07:05:26.602Z,21.10
2019-05-18T07:07:55.433Z,21.10
2019-05-18T07:10:24.158Z,21.20
2019-05-18T07:12:52.968Z,21.20
2019-05-18T07:15:21.887Z,21.30
2019-05-18T07:17:50.630Z,21.40
2019-05-18T07:20:19.557Z,21.50
2019-05-18T07:22:48.298Z,21.60
2019-05-18T07:25:17.274Z,21.80
2019-05-18T07:27:46.169Z,21.90
2019-05-18T07:30:15.454Z,22.10
2019-05-18T07:32:44.181Z,22.20
2019-05-18T07:35:14.032Z,22.30
2019-05-18T07:37:42.771Z,22.40
2019-05-18T07:40:12.590Z,22.50
2019-05-18T07:42:41.385Z,22.60
2019-05-18T07:45:10.342Z,22.70
2019-05-18T07:47:39.165Z,22.70
2019-05-18T07:50:08.139Z,22.80
2019-05-18T07:52:36.899Z,22.90
2019-05-18T07:55:07.330Z,22.90
2019-05-18T07:57:36.288Z,23.00
2019-05-18T08:00:06.040Z,23.10
2019-05-18T08:02:34.786Z,23.20
2019-05-18T08:05:04.748Z,23.20
2019-05-18T08:07:33.487Z,23.20
2019-05-18T08:10:02.228Z,23.30
2019-05-18T08:12:31.034Z,23.30
2019-05-18T08:14:59.904Z,23.40
2019-05-18T08:17:28.731Z,23.50
2019-05-18T08:19:57.582Z,23.50
2019-05-18T08:22:26.328Z,23.50
2019-05-18T08:24:55.074Z,23.60
2019-05-18T08:27:23.880Z,23.70
2019-05-18T08:29:52.619Z,23.70
2019-05-18T08:32:21.431Z,23.80
2019-05-18T08:34:50.227Z,23.80
2019-05-18T08:37:18.967Z,23.90
2019-05-18T08:39:47.701Z,23.90
2019-05-18T08:42:17.459Z,23.90
2019-05-18T08:44:46.189Z,24.00
2019-05-18T08:47:15.006Z,24.00
2019-05-18T08:50:03.123Z,24.00
2019-05-18T08:52:31.867Z,24.10
2019-05-18T08:55:00.607Z,24.10
2019-05-18T08:57:29.464Z,24.10
2019-05-18T08:59:58.221Z,24.10
2019-05-18T09:02:26.945Z,24.10
2019-05-18T09:04:55.710Z,24.10
2019-05-18T09:07:24.469Z,24.10
2019-05-18T09:09:53.247Z,24.10
2019-05-18T09:12:22.054Z,24.20
2019-05-18T09:14:50.773Z,24.20
2019-05-18T09:17:19.520Z,24.30
2019-05-18T09:19:48.384Z,24.30
2019-05-18T09:22:23.274Z,24.40
2019-05-18T09:24:47.586Z,24.50
2019-05-18T09:27:16.362Z,24.60
2019-05-18T09:29:45.098Z,24.60
2019-05-18T09:32:13.863Z,24.70
2019-05-18T09:34:42.598Z,24.70
2019-05-18T09:37:11.359Z,24.80
2019-05-18T09:39:40.113Z,24.80
2019-05-18T09:42:08.909Z,25.00
2019-05-18T09:44:38.617Z,25.00
2019-05-18T09:47:07.358Z,25.10
2019-05-18T09:49:36.149Z,25.10
2019-05-18T09:52:04.885Z,25.20
2019-05-18T09:54:33.649Z,25.30
2019-05-18T09:57:02.437Z,25.30
2019-05-18T09:59:31.183Z,25.40
2019-05-18T10:01:59.929Z,25.40
2019-05-18T10:04:28.808Z,25.40
2019-05-18T10:06:57.541Z,25.40
2019-05-18T10:09:26.365Z,25.50
2019-05-18T10:11:55.213Z,25.60
2019-05-18T10:14:23.942Z,25.60
2019-05-18T10:16:52.806Z,25.70
2019-05-18T10:19:21.609Z,25.80
2019-05-18T10:21:50.347Z,25.80
2019-05-18T10:24:19.095Z,26.00
2019-05-18T10:26:47.870Z,26.00
2019-05-18T10:29:16.689Z,26.00
2019-05-18T10:31:45.448Z,26.00
2019-05-18T10:34:14.241Z,26.10
2019-05-18T10:36:43.027Z,26.20
2019-05-18T10:39:11.762Z,26.30
2019-05-18T10:41:40.525Z,26.30
2019-05-18T10:44:09.351Z,26.40
2019-05-18T10:46:39.002Z,26.40
2019-05-18T10:49:07.832Z,26.50
2019-05-18T10:51:36.633Z,26.50
2019-05-18T10:54:05.447Z,26.60
2019-05-18T10:56:34.230Z,26.60
2019-05-18T10:59:03.028Z,26.60
2019-05-18T11:01:31.854Z,26.70
2019-05-18T11:04:00.682Z,26.70
2019-05-18T11:06:29.394Z,26.80
2019-05-18T11:08:58.205Z,26.80
2019-05-18T11:11:27.018Z,26.80
2019-05-18T11:13:55.828Z,26.90
2019-05-18T11:16:24.560Z,26.90
2019-05-18T11:18:53.327Z,26.90
2019-05-18T11:21:22.082Z,27.00
2019-05-18T11:23:50.844Z,27.00
2019-05-18T11:26:19.706Z,27.00
2019-05-18T11:28:48.450Z,27.00
2019-05-18T11:31:17.184Z,27.00
2019-05-18T11:33:45.959Z,27.10
2019-05-18T11:36:14.781Z,27.20
2019-05-18T11:38:43.530Z,27.20
2019-05-18T11:41:12.310Z,27.20
2019-05-18T11:43:41.067Z,27.30
2019-05-18T11:46:09.874Z,27.30
2019-05-18T11:48:39.557Z,27.30
2019-05-18T11:51:08.692Z,27.40
2019-05-18T11:53:37.616Z,27.50
2019-05-18T11:56:06.405Z,27.60
2019-05-18T11:58:35.330Z,27.70
2019-05-18T12:01:04.151Z,27.80
2019-05-18T12:03:32.932Z,27.90
2019-05-18T12:06:01.677Z,28.00
2019-05-18T12:08:30.421Z,28.00
2019-05-18T12:10:59.216Z,28.10
2019-05-18T12:13:28.090Z,28.20
2019-05-18T12:15:56.863Z,28.30
2019-05-18T12:18:25.723Z,28.30
2019-05-18T12:20:54.465Z,28.40
2019-05-18T12:23:23.202Z,28.60
2019-05-18T12:25:51.989Z,28.70
2019-05-18T12:28:20.733Z,28.90
2019-05-18T12:30:49.539Z,29.10
2019-05-18T12:33:18.328Z,29.30
2019-05-18T12:35:47.065Z,29.40
2019-05-18T12:38:15.850Z,29.50
2019-05-18T12:40:44.698Z,29.60
2019-05-18T12:43:13.520Z,29.90
2019-05-18T12:45:42.262Z,30.00
2019-05-18T12:48:11.051Z,30.20
2019-05-18T12:50:40.040Z,30.30
2019-05-18T12:53:08.794Z,30.20
2019-05-18T12:55:37.604Z,30.00
2019-05-18T12:58:06.351Z,30.10
2019-05-18T13:00:35.141Z,30.10
2019-05-18T13:03:03.976Z,30.20
2019-05-18T13:05:32.716Z,30.40
2019-05-18T13:08:01.531Z,30.50
2019-05-18T13:10:30.341Z,30.60
2019-05-18T13:12:59.078Z,31.00
2019-05-18T13:15:27.941Z,31.40
2019-05-18T13:17:56.677Z,31.80
2019-05-18T13:20:25.445Z,32.20
2019-05-18T13:22:54.241Z,32.70
2019-05-18T13:25:23.048Z,33.30
2019-05-18T13:27:51.783Z,33.80
2019-05-18T13:30:22.190Z,34.40
2019-05-18T13:32:51.001Z,34.90
2019-05-18T13:35:19.857Z,35.20
2019-05-18T13:37:48.652Z,35.50
2019-05-18T13:40:17.485Z,35.70
2019-05-18T13:42:46.228Z,35.70
2019-05-18T13:45:15.514Z,35.40
2019-05-18T13:47:44.249Z,35.10
2019-05-18T13:50:14.583Z,34.80
2019-05-18T13:52:44.363Z,34.80
2019-05-18T13:55:13.484Z,34.80
2019-05-18T13:57:42.239Z,34.70
2019-05-18T14:00:12.439Z,34.50
2019-05-18T14:02:41.352Z,34.20
2019-05-18T14:05:10.459Z,33.90
2019-05-18T14:07:39.242Z,33.70
2019-05-18T14:10:12.450Z,33.30
2019-05-18T14:12:40.868Z,33.60
2019-05-18T14:15:10.248Z,33.70
2019-05-18T14:17:38.996Z,33.80
2019-05-18T14:20:07.961Z,33.80
2019-05-18T14:22:36.743Z,34.00
2019-05-18T14:25:18.588Z,34.90
2019-05-18T14:27:39.652Z,35.50
2019-05-18T14:30:09.418Z,36.30
2019-05-18T14:32:38.292Z,36.60
2019-05-18T14:35:08.305Z,37.20
2019-05-18T14:37:37.094Z,37.90
2019-05-18T14:40:09.894Z,38.50
2019-05-18T14:42:38.617Z,39.10
2019-05-18T14:45:10.731Z,39.60
2019-05-18T14:47:39.566Z,40.10
2019-05-18T14:50:08.589Z,39.90
2019-05-18T14:52:37.415Z,39.30
2019-05-18T14:55:07.255Z,38.60
2019-05-18T14:57:36.070Z,38.00
2019-05-18T15:00:06.337Z,37.10
2019-05-18T15:02:35.104Z,36.30
2019-05-18T15:05:05.109Z,35.70
2019-05-18T15:07:33.963Z,35.10
2019-05-18T15:10:02.771Z,34.50
2019-05-18T15:12:31.530Z,33.80
2019-05-18T15:15:00.300Z,33.30
2019-05-18T15:17:29.121Z,32.80
2019-05-18T15:19:57.853Z,32.40
2019-05-18T15:22:26.699Z,32.00
2019-05-18T15:24:55.462Z,31.80
2019-05-18T15:27:24.200Z,31.40
2019-05-18T15:29:52.984Z,31.10
2019-05-18T15:32:21.792Z,30.90
2019-05-18T15:34:50.539Z,30.80
2019-05-18T15:37:19.326Z,30.50
2019-05-18T15:39:48.137Z,30.40
2019-05-18T15:42:16.884Z,30.20
2019-05-18T15:44:45.770Z,30.30
2019-05-18T15:47:14.497Z,30.50
2019-05-18T15:49:43.247Z,30.50
2019-05-18T15:52:12.060Z,30.30
2019-05-18T15:54:40.742Z,30.10
2019-05-18T15:57:10.407Z,29.70
2019-05-18T15:59:39.182Z,29.60
2019-05-18T16:02:08.000Z,29.40
2019-05-18T16:04:36.789Z,29.20
2019-05-18T16:07:05.661Z,29.00
2019-05-18T16:09:34.411Z,28.80
2019-05-18T16:12:03.154Z,28.70
2019-05-18T16:14:32.037Z,28.60
2019-05-18T16:17:00.768Z,28.40
2019-05-18T16:19:29.572Z,28.30
2019-05-18T16:21:58.431Z,28.10
2019-05-18T16:24:27.210Z,28.00
2019-05-18T16:26:55.939Z,27.80
2019-05-18T16:29:24.730Z,27.70
2019-05-18T16:31:53.488Z,27.70
2019-05-18T16:34:22.241Z,27.50
2019-05-18T16:36:51.014Z,27.50
2019-05-18T16:39:19.768Z,27.40
2019-05-18T16:41:48.567Z,27.30
2019-05-18T16:44:17.365Z,27.20
2019-05-18T16:46:46.089Z,27.20
2019-05-18T16:49:14.845Z,27.10
2019-05-18T16:51:43.656Z,27.00
2019-05-18T16:54:12.400Z,26.90
2019-05-18T16:56:41.214Z,26.80
2019-05-18T16:59:10.903Z,26.80
2019-05-18T17:01:39.724Z,26.70
2019-05-18T17:04:08.533Z,26.70
2019-05-18T17:06:37.411Z,26.60
2019-05-18T17:09:06.261Z,26.50
2019-05-18T17:11:35.045Z,26.50
2019-05-18T17:14:04.057Z,26.30
2019-05-18T17:16:32.795Z,26.30
2019-05-18T17:19:01.601Z,26.20
2019-05-18T17:21:30.381Z,26.10
2019-05-18T17:24:00.669Z,26.10
2019-05-18T17:26:29.442Z,26.00
2019-05-18T17:29:00.149Z,25.90
2019-05-18T17:31:28.580Z,25.90
2019-05-18T17:33:57.334Z,25.80
2019-05-18T17:36:26.076Z,25.70
2019-05-18T17:38:54.858Z,25.70
2019-05-18T17:41:23.593Z,25.60
2019-05-18T17:43:52.396Z,25.50
2019-05-18T17:46:21.132Z,25.40
2019-05-18T17:48:49.950Z,25.30
2019-05-18T17:51:18.801Z,25.20
2019-05-18T17:53:47.577Z,25.20
2019-05-18T17:56:16.320Z,25.10
2019-05-18T17:58:45.133Z,25.00
2019-05-18T18:01:14.840Z,25.00
2019-05-18T18:03:43.572Z,25.00
2019-05-18T18:06:12.318Z,24.90
2019-05-18T18:08:41.146Z,24.80
2019-05-18T18:11:11.899Z,24.80
2019-05-18T18:13:40.295Z,24.70
2019-05-18T18:16:09.179Z,24.60
2019-05-18T18:18:38.526Z,24.60
2019-05-18T18:21:07.284Z,24.50
2019-05-18T18:23:36.085Z,24.50
2019-05-18T18:26:04.845Z,24.40
2019-05-18T18:28:33.685Z,24.40
2019-05-18T18:31:02.511Z,24.20
2019-05-18T18:33:34.198Z,24.20
2019-05-18T18:36:03.078Z,24.10
2019-05-18T18:38:31.835Z,24.10
2019-05-18T18:41:00.595Z,24.00
2019-05-18T18:43:29.343Z,24.00
2019-05-18T18:45:58.221Z,23.90
2019-05-18T18:48:27.027Z,23.90
2019-05-18T18:50:55.812Z,23.80
2019-05-18T18:53:24.565Z,23.80
2019-05-18T18:55:53.309Z,23.70
2019-05-18T18:58:22.146Z,23.70
2019-05-18T19:00:50.860Z,23.60
2019-05-18T19:03:20.485Z,23.60
2019-05-18T19:05:49.249Z,23.50
2019-05-18T19:08:17.981Z,23.50
2019-05-18T19:10:46.786Z,23.40
2019-05-18T19:13:15.551Z,23.40
2019-05-18T19:15:44.355Z,23.30
2019-05-18T19:18:13.098Z,23.30
2019-05-18T19:20:41.850Z,23.20
2019-05-18T19:23:10.613Z,23.20
2019-05-18T19:25:39.481Z,23.20
2019-05-18T19:28:08.226Z,23.10
2019-05-18T19:30:36.987Z,23.10
2019-05-18T19:33:05.733Z,23.00
2019-05-18T19:35:34.468Z,22.90
2019-05-18T19:38:03.279Z,22.90
2019-05-18T19:40:32.030Z,22.80
2019-05-18T19:43:00.784Z,22.80
2019-05-18T19:45:29.544Z,22.70
2019-05-18T19:48:00.181Z,22.70
2019-05-18T19:50:28.958Z,22.70
2019-05-18T19:52:57.765Z,22.60
2019-05-18T19:55:26.510Z,22.60
2019-05-18T19:58:08.171Z,22.50
2019-05-18T20:00:25.690Z,22.50
2019-05-18T20:02:54.426Z,22.50
2019-05-18T20:05:24.090Z,22.40
2019-05-18T20:07:52.815Z,22.40
2019-05-18T20:10:21.687Z,22.40
2019-05-18T20:12:50.439Z,22.30
2019-05-18T20:15:19.263Z,22.30
2019-05-18T20:17:48.027Z,22.30
2019-05-18T20:20:17.129Z,22.20
2019-05-18T20:22:45.920Z,22.20
2019-05-18T20:25:14.954Z,22.20
2019-05-18T20:27:43.725Z,22.10
2019-05-18T20:30:12.652Z,22.10
2019-05-18T20:32:41.432Z,22.10
2019-05-18T20:35:30.966Z,22.00
2019-05-18T20:37:59.738Z,22.00
2019-05-18T20:40:28.470Z,21.90
2019-05-18T20:42:57.215Z,21.90
2019-05-18T20:45:26.048Z,21.90
2019-05-18T20:47:54.817Z,21.80
2019-05-18T20:50:23.647Z,21.80
2019-05-18T20:52:52.465Z,21.80
2019-05-18T20:55:21.241Z,21.70
2019-05-18T20:57:50.079Z,21.70
2019-05-18T21:00:19.250Z,21.60
2019-05-18T21:02:48.024Z,21.60
2019-05-18T21:05:17.545Z,21.60
2019-05-18T21:07:47.181Z,21.60
2019-05-18T21:10:16.032Z,21.60
2019-05-18T21:12:44.768Z,21.50
2019-05-18T21:15:13.873Z,21.50
2019-05-18T21:17:42.716Z,21.50
2019-05-18T21:20:11.776Z,21.40
2019-05-18T21:22:40.511Z,21.40
2019-05-18T21:25:09.455Z,21.40
2019-05-18T21:27:38.282Z,21.30
2019-05-18T21:30:07.394Z,21.30
2019-05-18T21:32:36.138Z,21.30
2019-05-18T21:35:07.219Z,21.30
2019-05-18T21:37:35.964Z,21.30
2019-05-18T21:40:05.890Z,21.30
2019-05-18T21:42:34.663Z,21.30
2019-05-18T21:45:03.874Z,21.30
2019-05-18T21:47:32.697Z,21.30
2019-05-18T21:50:01.538Z,21.20
2019-05-18T21:52:30.483Z,21.20
2019-05-18T21:54:59.239Z,21.20
2019-05-18T21:57:28.066Z,21.20
2019-05-18T21:59:56.813Z,21.20
2019-05-18T22:02:25.560Z,21.10
2019-05-18T22:04:54.316Z,21.10
2019-05-18T22:07:23.073Z,21.10
2019-05-18T22:09:53.766Z,21.10
2019-05-18T22:12:22.915Z,21.10
2019-05-18T22:14:51.605Z,21.10
2019-05-18T22:17:20.376Z,21.10
2019-05-18T22:19:49.243Z,21.10
2019-05-18T22:22:18.072Z,21.00
2019-05-18T22:24:46.830Z,21.00
2019-05-18T22:27:15.579Z,21.00
2019-05-18T22:29:44.315Z,20.90
2019-05-18T22:32:13.186Z,20.90
2019-05-18T22:34:41.955Z,20.90
2019-05-18T22:37:10.704Z,20.90
2019-05-18T22:39:39.437Z,20.80
2019-05-18T22:42:08.198Z,20.80
2019-05-18T22:44:37.023Z,20.80
2019-05-18T22:47:05.768Z,20.80
2019-05-18T22:49:34.538Z,20.80
2019-05-18T22:52:03.284Z,20.80
2019-05-18T22:54:32.096Z,20.80
2019-05-18T22:57:00.844Z,20.70
2019-05-18T22:59:29.525Z,20.70
2019-05-18T23:01:58.340Z,20.70
2019-05-18T23:04:27.183Z,20.60
2019-05-18T23:06:55.912Z,20.60
2019-05-18T23:09:24.670Z,20.60
2019-05-18T23:11:54.304Z,20.60
2019-05-18T23:14:23.113Z,20.60
2019-05-18T23:16:51.930Z,20.60
2019-05-18T23:19:20.682Z,20.50
2019-05-18T23:21:49.495Z,20.50
2019-05-18T23:24:18.238Z,20.50
2019-05-18T23:26:46.991Z,20.40
2019-05-18T23:29:15.796Z,20.40
2019-05-18T23:31:44.538Z,20.30
2019-05-18T23:34:13.268Z,20.30
2019-05-18T23:36:42.101Z,20.30
2019-05-18T23:39:10.844Z,20.30
2019-05-18T23:41:39.670Z,20.30
2019-05-18T23:44:08.419Z,20.30
2019-05-18T23:46:37.252Z,20.20
2019-05-18T23:49:10.806Z,20.20
2019-05-18T23:51:36.415Z,20.20
2019-05-18T23:54:05.238Z,20.10
2019-05-18T23:56:34.054Z,20.10
2019-05-18T23:59:03.505Z,20.10
